Terminal Aerodrome Forecast
Issued by NWS Rapid City, SD

Home | Current Version | Previous Version | Text Only | Print | Product List | Glossary Off
Versions: 1 2 3 4 5 6 7 8 9 10 11 12 13 14
000 FTUS43 KUNR 132320 TAFRAP TAF KRAP 132320Z 1400/1424 09008KT P6SM -TSRA OVC050CB FM140100 VRB05KT P6SM SCT150=

USA.gov is the U.S. government's official web portal to all federal, state and local government web resources and services.